CheckWX is a tool to help pilots better visualize weather data.  It is not intended as a substitute for an official pre-flight weather briefing.

12:55:38 UTC

PAHO TAF
Homer Airport
Homer, Alaska, USA
PAHO 211127Z 2112/2212 24010KT 1 1/2SM -SN OVC015 TEMPO 2112/2116 24015G23KT 3/4SM -SN BLSN VV009 FM212100 24015G25KT 1 1/2SM -SN OVC015 FM220800 24010KT 1 1/2SM -SN OVC015

Feb-21@
12:00 UTC

Feb-21 @ 12:00 UTC

Feb-21@
21:00 UTC

Feb-21 @ 21:00 UTC

PAHO 211127Z 2112/2212 24010KT 1 1/2SM -SN OVC015
Wind
  • 240° at 10 KTS
Conditions
Light Snow
Cloud Levels
  • Overcast at 1,500' AGL

Feb-21@
12:00 UTC

Feb-21 @ 12:00 UTC

Feb-21@
16:00 UTC

Feb-21 @ 16:00 UTC

TEMPO 2112/2116 24015G23KT 3/4SM -SN BLSN VV009

Temporary

Temporary Changes expected for less than half the time period

Wind
  • 240° at 15 KTS
  • {Gusting to 23 KTS
Conditions
Light Snow, Blowing Snow
Cloud Levels
  • Vertical visibility at 900' AGL

Feb-21@
21:00 UTC

Feb-21 @ 21:00 UTC

Feb-22@
08:00 UTC

Feb-22 @ 08:00 UTC

FM212100 24015G25KT 1 1/2SM -SN OVC015

From

From Standard forecast or significant change

Wind
  • 240° at 15 KTS
  • {Gusting to 25 KTS
Conditions
Light Snow
Cloud Levels
  • Overcast at 1,500' AGL

Feb-22@
08:00 UTC

Feb-22 @ 08:00 UTC

Feb-22@
12:00 UTC

Feb-22 @ 12:00 UTC

FM220800 24010KT 1 1/2SM -SN OVC015

From

From Standard forecast or significant change

Wind
  • 240° at 10 KTS
Conditions
Light Snow
Cloud Levels
  • Overcast at 1,500' AGL